Time;durP1;ratioP1;P1;durP2;ratioP2;P2;SDS_P1;SDS_P2;PMS_P1;PMS_P2;Temp;Humidity;BMP_temperature;BMP_pressure;BME280_temperature;BME280_humidity;BME280_pressure;Samples;Min_cycle;Max_cycle;Signal;HPM_P1;HPM_P2
2021/06/02 00:02:15;;;;;;;2.65;1.20;;;15.30;71.50;;;;;;5093884;28;20040;-82
2021/06/02 00:04:50;;;;;;;3.47;1.40;;;15.30;72.00;;;;;;5083670;28;20046;-81
2021/06/02 00:07:21;;;;;;;3.78;1.50;;;15.30;72.30;;;;;;5094942;28;20431;-82
2021/06/02 00:09:48;;;;;;;3.22;1.35;;;15.30;72.70;;;;;;5096541;28;20024;-81
2021/06/02 00:12:14;;;;;;;3.25;1.35;;;15.30;72.40;;;;;;5076352;28;20104;-81
2021/06/02 00:14:40;;;;;;;3.20;1.40;;;15.10;72.40;;;;;;5087003;28;20108;-81
2021/06/02 00:17:07;;;;;;;3.38;1.60;;;15.20;72.80;;;;;;5098377;28;20048;-82
2021/06/02 00:19:34;;;;;;;3.55;1.27;;;15.10;72.50;;;;;;5099246;28;20097;-81
2021/06/02 00:22:01;;;;;;;3.53;1.27;;;15.10;72.80;;;;;;5061749;28;20035;-81
2021/06/02 00:24:27;;;;;;;3.92;1.35;;;15.00;73.10;;;;;;5098248;28;20024;-81
2021/06/02 00:26:55;;;;;;;4.40;1.30;;;14.90;73.80;;;;;;5099256;28;20031;-82
2021/06/02 00:29:25;;;;;;;3.08;1.52;;;14.90;74.10;;;;;;5067859;28;20055;-81
2021/06/02 00:31:52;;;;;;;3.13;1.63;;;14.90;74.70;;;;;;5078467;28;20063;-82
2021/06/02 00:34:18;;;;;;;3.83;1.30;;;14.80;74.60;;;;;;5078918;28;20042;-81
2021/06/02 00:36:44;;;;;;;3.97;1.58;;;14.80;75.00;;;;;;5060484;28;20499;-81
2021/06/02 00:39:12;;;;;;;2.90;1.30;;;14.70;75.20;;;;;;5079009;28;20039;-81
2021/06/02 00:41:39;;;;;;;3.17;1.48;;;14.70;75.20;;;;;;5089858;28;20063;-81
2021/06/02 00:44:09;;;;;;;2.35;1.08;;;14.70;75.90;;;;;;5078511;28;20021;-81
2021/06/02 00:46:38;;;;;;;3.67;1.48;;;14.70;75.60;;;;;;5078854;28;20035;-81
2021/06/02 00:49:12;;;;;;;2.72;1.13;;;14.60;75.50;;;;;;5076896;28;20096;-81
2021/06/02 00:51:38;;;;;;;3.58;1.17;;;14.60;75.30;;;;;;5077794;28;20036;-81
2021/06/02 00:54:06;;;;;;;2.72;1.40;;;14.60;75.60;;;;;;5078151;28;20024;-81
2021/06/02 00:56:53;;;;;;;3.00;1.20;;;14.50;75.10;;;;;;5076617;28;20081;-82
2021/06/02 00:59:22;;;;;;;2.55;1.10;;;14.60;75.30;;;;;;5059778;28;20036;-82
2021/06/02 01:01:49;;;;;;;2.97;1.35;;;14.50;75.30;;;;;;5075287;28;20078;-81
2021/06/02 01:04:15;;;;;;;3.40;1.65;;;14.40;75.70;;;;;;5059532;28;20029;-81
2021/06/02 01:06:44;;;;;;;3.72;1.27;;;14.60;75.60;;;;;;5075503;28;20052;-81
2021/06/02 01:09:10;;;;;;;3.25;1.00;;;14.60;75.20;;;;;;5078735;28;20112;-81
2021/06/02 01:11:36;;;;;;;2.85;1.20;;;14.50;75.80;;;;;;5078268;28;20052;-82
2021/06/02 01:14:03;;;;;;;3.20;1.52;;;14.50;76.20;;;;;;5083825;28;20107;-81
2021/06/02 01:16:35;;;;;;;3.05;1.33;;;14.40;76.10;;;;;;5079796;28;20028;-81
2021/06/02 01:19:02;;;;;;;3.40;1.27;;;14.30;76.20;;;;;;5086448;28;20083;-82
2021/06/02 01:21:29;;;;;;;5.72;1.42;;;14.30;76.80;;;;;;5077444;28;20395;-82
2021/06/02 01:23:59;;;;;;;3.28;1.23;;;14.30;76.90;;;;;;5064222;28;20024;-81
2021/06/02 01:26:27;;;;;;;3.95;1.38;;;14.20;77.10;;;;;;5080301;28;20081;-81
2021/06/02 01:28:53;;;;;;;3.42;1.25;;;14.20;77.70;;;;;;5076030;28;20610;-81
2021/06/02 01:32:00;;;;;;;4.30;1.02;;;14.10;78.50;;;;;;5076242;28;20025;-81
2021/06/02 01:34:34;;;;;;;2.47;1.30;;;14.10;78.20;;;;;;5076483;28;20063;-81
2021/06/02 01:37:18;;;;;;;3.03;1.30;;;14.00;79.00;;;;;;5077342;28;20107;-81
2021/06/02 01:40:02;;;;;;;5.70;1.23;;;14.00;78.90;;;;;;5058918;28;20043;-81
2021/06/02 01:42:48;;;;;;;3.10;1.30;;;14.00;79.40;;;;;;5077275;28;20067;-81
2021/06/02 01:45:36;;;;;;;2.85;1.30;;;14.00;79.30;;;;;;5058531;28;20119;-81
2021/06/02 01:48:09;;;;;;;2.83;1.40;;;13.90;79.70;;;;;;5096713;28;20488;-81
2021/06/02 01:51:15;;;;;;;4.25;1.10;;;13.90;80.10;;;;;;5078707;28;20036;-81
2021/06/02 01:54:14;;;;;;;3.97;1.38;;;13.80;80.30;;;;;;5097257;28;20028;-81
2021/06/02 01:56:40;;;;;;;2.60;1.10;;;13.80;80.50;;;;;;5074728;28;20044;-81
2021/06/02 01:59:37;;;;;;;3.97;1.30;;;13.80;81.40;;;;;;5059137;28;20024;-81
2021/06/02 02:02:27;;;;;;;3.22;1.35;;;13.70;81.70;;;;;;5058230;28;20063;-81
2021/06/02 02:05:09;;;;;;;2.92;1.30;;;13.70;82.30;;;;;;5058552;28;20024;-81
2021/06/02 02:07:53;;;;;;;;;;;13.60;82.40;;;;;;5077116;28;20043;-81
2021/06/02 02:10:46;;;;;;;2.65;1.17;;;13.60;82.80;;;;;;5085168;28;19986;-81
2021/06/02 02:13:42;;;;;;;2.38;1.10;;;13.50;82.90;;;;;;5108124;28;20041;-81
2021/06/02 02:16:26;;;;;;;5.40;1.30;;;13.50;82.20;;;;;;5113495;28;20028;-81
2021/06/02 02:19:13;;;;;;;4.07;1.60;;;13.50;83.10;;;;;;5075317;28;20035;-81
2021/06/02 02:21:53;;;;;;;3.33;1.27;;;13.40;84.30;;;;;;5054821;28;20032;-80
2021/06/02 02:24:47;;;;;;;3.53;1.58;;;13.40;84.30;;;;;;5095398;28;20031;-81
2021/06/02 02:27:34;;;;;;;3.88;1.65;;;13.40;84.40;;;;;;5072893;28;20067;-81
2021/06/02 02:30:38;;;;;;;2.83;1.25;;;13.40;84.80;;;;;;5075704;28;20107;-81
2021/06/02 02:33:13;;;;;;;3.22;1.30;;;13.40;84.80;;;;;;5076370;28;20119;-81
2021/06/02 02:35:46;;;;;;;3.28;1.52;;;13.40;84.80;;;;;;5091121;28;20055;-81
2021/06/02 02:38:35;;;;;;;5.50;1.48;;;13.40;85.70;;;;;;5075799;28;20032;-81
2021/06/02 02:41:39;;;;;;;3.35;1.70;;;13.30;86.20;;;;;;5089043;28;20081;-81
2021/06/02 02:44:07;;;;;;;5.32;1.50;;;13.20;86.40;;;;;;5076975;28;20078;-81
2021/06/02 02:47:10;;;;;;;3.97;1.75;;;13.30;87.10;;;;;;5074562;28;20036;-80
2021/06/02 02:50:01;;;;;;;3.97;1.52;;;13.20;87.40;;;;;;5076039;28;20054;-81
2021/06/02 02:52:33;;;;;;;3.88;1.80;;;13.20;87.70;;;;;;5075152;28;20503;-81
2021/06/02 02:55:11;;;;;;;4.00;1.50;;;13.10;88.40;;;;;;5075016;28;20025;-81
2021/06/02 02:57:58;;;;;;;2.92;1.27;;;13.00;88.50;;;;;;5084997;28;20081;-81
2021/06/02 03:00:31;;;;;;;3.67;1.45;;;13.10;89.30;;;;;;5075061;28;20024;-80
2021/06/02 03:03:32;;;;;;;3.42;1.58;;;13.10;88.50;;;;;;5081754;28;20028;-81
2021/06/02 03:06:14;;;;;;;4.30;1.83;;;13.00;89.50;;;;;;5006439;28;20503;-81
2021/06/02 03:09:10;;;;;;;3.55;1.50;;;13.00;89.80;;;;;;5079665;28;20036;-81
2021/06/02 03:11:48;;;;;;;3.65;1.63;;;13.00;90.00;;;;;;5069567;28;20067;-81
2021/06/02 03:14:39;;;;;;;3.90;1.70;;;12.90;90.10;;;;;;5069213;28;20029;-81
2021/06/02 03:17:20;;;;;;;2.83;1.42;;;12.90;90.20;;;;;;5069580;28;20048;-81
2021/06/02 03:20:13;;;;;;;3.15;1.40;;;12.90;90.40;;;;;;5088348;28;20021;-80
2021/06/02 03:23:00;;;;;;;3.45;1.38;;;12.90;90.60;;;;;;5087630;28;20036;-81
2021/06/02 03:25:38;;;;;;;3.90;1.50;;;12.90;90.60;;;;;;5105149;28;20150;-81
2021/06/02 03:28:06;;;;;;;4.40;1.77;;;12.80;90.60;;;;;;5108281;28;20032;-81
2021/06/02 03:30:34;;;;;;;2.97;1.63;;;12.90;90.90;;;;;;5089907;28;20032;-81
2021/06/02 03:33:20;;;;;;;3.47;1.73;;;12.80;90.90;;;;;;5111084;28;20043;-81
2021/06/02 03:36:05;;;;;;;3.42;1.60;;;12.80;91.00;;;;;;5111746;28;20040;-80
2021/06/02 03:39:10;;;;;;;3.17;1.40;;;12.80;91.20;;;;;;5094282;28;20034;-80
2021/06/02 03:41:58;;;;;;;4.38;1.60;;;12.80;91.40;;;;;;5078661;28;20028;-81
2021/06/02 03:44:29;;;;;;;3.20;1.70;;;12.80;91.60;;;;;;5072753;28;20024;-80
2021/06/02 03:47:24;;;;;;;3.00;1.50;;;12.70;91.80;;;;;;5073243;28;20048;-80
2021/06/02 03:50:13;;;;;;;5.70;1.80;;;12.80;91.80;;;;;;5072425;28;20085;-80
2021/06/02 03:52:48;;;;;;;3.15;1.63;;;12.80;91.80;;;;;;5090902;28;20036;-80
2021/06/02 03:55:52;;;;;;;3.90;1.55;;;12.80;91.70;;;;;;5072728;28;20455;-81
2021/06/02 03:58:49;;;;;;;3.28;1.52;;;12.80;91.90;;;;;;5073842;28;20036;-81
2021/06/02 04:01:27;;;;;;;4.85;1.60;;;12.70;91.80;;;;;;5089831;28;20093;-80
2021/06/02 04:04:11;;;;;;;3.85;1.80;;;12.80;92.10;;;;;;5072600;28;20172;-80
2021/06/02 04:06:56;;;;;;;3.25;1.70;;;12.80;92.00;;;;;;5072360;28;20043;-80
2021/06/02 04:09:26;;;;;;;4.05;1.77;;;12.80;92.10;;;;;;5049431;28;20064;-81
2021/06/02 04:12:11;;;;;;;4.10;1.70;;;12.80;92.30;;;;;;5088982;28;20033;-80
2021/06/02 04:14:42;;;;;;;3.70;1.58;;;12.90;91.80;;;;;;5089863;28;20067;-81
2021/06/02 04:17:09;;;;;;;6.32;1.90;;;12.90;92.00;;;;;;5088071;28;20024;-80
2021/06/02 04:19:35;;;;;;;4.38;1.30;;;13.00;91.90;;;;;;5090753;28;20040;-81
2021/06/02 04:22:06;;;;;;;3.28;1.33;;;13.00;91.90;;;;;;5072081;28;20028;-81
2021/06/02 04:24:33;;;;;;;4.00;1.63;;;13.10;92.20;;;;;;5080884;28;20024;-81
2021/06/02 04:27:00;;;;;;;3.58;1.67;;;13.10;92.10;;;;;;5088195;28;20036;-81
2021/06/02 04:29:27;;;;;;;3.80;1.77;;;13.30;92.10;;;;;;5072733;28;20444;-81
2021/06/02 04:31:57;;;;;;;6.53;1.92;;;13.30;91.20;;;;;;5082032;28;20450;-81
2021/06/02 04:34:25;;;;;;;3.33;1.85;;;13.30;91.40;;;;;;5110022;28;20300;-81
2021/06/02 04:36:59;;;;;;;4.85;1.75;;;13.40;91.70;;;;;;5089696;28;20011;-81
2021/06/02 04:39:26;;;;;;;3.45;1.60;;;13.50;92.00;;;;;;5090296;28;20070;-81
2021/06/02 04:41:54;;;;;;;2.92;1.48;;;13.50;91.20;;;;;;5088613;28;20033;-81
2021/06/02 04:44:23;;;;;;;4.85;1.75;;;13.50;90.90;;;;;;5088548;28;20086;-81
2021/06/02 04:46:48;;;;;;;5.57;1.60;;;13.40;90.90;;;;;;5088389;28;20020;-81
2021/06/02 04:49:15;;;;;;;3.53;1.60;;;13.50;90.80;;;;;;5087222;28;20029;-81
2021/06/02 04:52:02;;;;;;;4.03;1.50;;;13.60;91.20;;;;;;5087095;28;20137;-81
2021/06/02 04:54:46;;;;;;;2.75;1.30;;;13.70;91.00;;;;;;5088314;28;20059;-81
2021/06/02 04:57:42;;;;;;;4.53;1.50;;;14.20;90.70;;;;;;5088724;28;20025;-80
2021/06/02 05:00:42;;;;;;;4.82;1.80;;;14.00;90.10;;;;;;5082015;28;20357;-81
2021/06/02 05:03:39;;;;;;;4.10;1.48;;;14.00;88.90;;;;;;5076899;28;20020;-81
2021/06/02 05:06:52;;;;;;;3.55;1.67;;;14.00;89.80;;;;;;5059713;28;20024;-81
2021/06/02 05:09:56;;;;;;;5.30;2.10;;;13.90;89.40;;;;;;5060041;28;20036;-81
2021/06/02 05:12:50;;;;;;;2.90;1.60;;;13.90;89.80;;;;;;5078427;28;20024;-80
2021/06/02 05:15:40;;;;;;;4.55;2.40;;;14.00;89.50;;;;;;5080765;28;20027;-81
2021/06/02 05:18:44;;;;;;;3.53;1.38;;;14.10;89.20;;;;;;5085245;28;20017;-81
2021/06/02 05:24:53;;;;;;;3.58;1.67;;;14.30;87.70;;;;;;5095751;28;20054;-81
2021/06/02 05:27:40;;;;;;;2.40;1.27;;;14.40;87.90;;;;;;5077506;28;20035;-82
2021/06/02 05:30:18;;;;;;;3.33;1.50;;;14.50;88.40;;;;;;5067141;28;20027;-81
2021/06/02 05:33:22;;;;;;;4.22;1.55;;;14.70;87.60;;;;;;5088414;28;20028;-81
2021/06/02 05:36:28;;;;;;;3.25;1.50;;;14.90;87.00;;;;;;5104745;28;20103;-81
2021/06/02 05:39:06;;;;;;;4.18;1.40;;;15.00;85.10;;;;;;5071308;28;20087;-81
2021/06/02 05:41:40;;;;;;;2.60;1.38;;;15.30;85.20;;;;;;5070966;28;20389;-81
2021/06/02 05:45:01;;;;;;;5.32;1.75;;;15.40;84.20;;;;;;5070163;28;20090;-81
2021/06/02 05:48:07;;;;;;;3.28;1.60;;;15.60;84.00;;;;;;4981541;28;20089;-81
2021/06/02 05:50:39;;;;;;;3.63;1.50;;;15.70;84.10;;;;;;5048297;28;20119;-81
2021/06/02 05:53:23;;;;;;;5.20;1.73;;;15.80;84.60;;;;;;5076362;28;20051;-81
2021/06/02 05:56:29;;;;;;;3.75;1.35;;;16.00;83.90;;;;;;5077757;28;20036;-81
2021/06/02 05:59:32;;;;;;;4.50;1.48;;;15.90;84.50;;;;;;5077134;28;20546;-81
2021/06/02 06:02:07;;;;;;;2.83;1.40;;;16.00;83.60;;;;;;5076838;28;20024;-81
2021/06/02 06:05:11;;;;;;;3.85;1.70;;;16.00;82.30;;;;;;5057663;28;20032;-81
2021/06/02 06:08:07;;;;;;;3.63;1.65;;;16.10;81.40;;;;;;5075890;28;20426;-81
2021/06/02 06:11:03;;;;;;;3.53;1.50;;;16.00;83.00;;;;;;5095207;28;20564;-81
2021/06/02 06:13:53;;;;;;;4.05;1.70;;;16.10;82.50;;;;;;5069572;28;20020;-82
2021/06/02 06:16:36;;;;;;;6.07;1.40;;;16.20;82.50;;;;;;5096607;28;20036;-82
2021/06/02 06:19:08;;;;;;;5.57;1.52;;;16.50;82.80;;;;;;5067174;28;20025;-81
2021/06/02 06:22:01;;;;;;;3.78;1.42;;;16.30;82.10;;;;;;5074845;28;20033;-81
2021/06/02 06:24:50;;;;;;;4.07;1.90;;;16.40;82.40;;;;;;5066135;28;20032;-81
2021/06/02 06:27:22;;;;;;;4.38;1.90;;;16.50;83.60;;;;;;5094491;28;20031;-82
2021/06/02 06:30:14;;;;;;;4.25;1.73;;;16.60;82.60;;;;;;5074655;28;20032;-80
2021/06/02 06:32:43;;;;;;;4.32;1.55;;;16.50;83.80;;;;;;5076680;28;20035;-82
2021/06/02 06:35:10;;;;;;;6.15;1.67;;;16.60;84.20;;;;;;5094544;28;20024;-81
2021/06/02 06:37:58;;;;;;;5.72;1.67;;;16.60;85.50;;;;;;5073365;28;20038;-81
2021/06/02 06:40:29;;;;;;;5.22;1.80;;;16.70;85.90;;;;;;5054418;28;20039;-81
2021/06/02 06:42:57;;;;;;;5.03;1.70;;;16.70;85.80;;;;;;5072255;28;20430;-82
2021/06/02 06:45:32;;;;;;;3.25;1.52;;;17.00;85.20;;;;;;5085848;28;20103;-82
2021/06/02 06:48:03;;;;;;;5.47;2.03;;;17.30;83.80;;;;;;5074385;28;20469;-82
2021/06/02 06:50:30;;;;;;;4.50;1.60;;;17.50;82.40;;;;;;5093689;28;20028;-82
2021/06/02 06:53:03;;;;;;;5.93;2.08;;;17.70;81.70;;;;;;5068266;28;20036;-81
2021/06/02 06:55:29;;;;;;;3.75;1.40;;;17.90;80.70;;;;;;5090998;28;20382;-82
2021/06/02 06:57:56;;;;;;;3.40;1.55;;;18.10;80.30;;;;;;5091174;28;20028;-82
2021/06/02 07:00:24;;;;;;;4.10;1.75;;;18.20;80.00;;;;;;5089064;28;20021;-82
2021/06/02 07:02:49;;;;;;;7.15;1.90;;;18.20;78.60;;;;;;5091753;28;20073;-82
2021/06/02 07:05:19;;;;;;;3.78;1.50;;;18.30;76.80;;;;;;5095142;28;20039;-82
2021/06/02 07:07:45;;;;;;;3.22;1.52;;;18.40;73.50;;;;;;5094284;28;20507;-82
2021/06/02 07:10:13;;;;;;;6.07;1.45;;;18.50;74.00;;;;;;5094688;28;20050;-82
2021/06/02 07:12:44;;;;;;;7.13;1.58;;;18.70;75.30;;;;;;5076405;28;20035;-82
2021/06/02 07:15:11;;;;;;;3.83;1.87;;;18.90;75.20;;;;;;5094449;28;20020;-83
2021/06/02 07:17:45;;;;;;;6.18;1.92;;;18.90;76.90;;;;;;5072027;28;20035;-83
2021/06/02 07:20:13;;;;;;;3.20;1.40;;;19.00;76.00;;;;;;5056333;28;20047;-83
2021/06/02 07:22:44;;;;;;;3.38;1.67;;;19.10;73.20;;;;;;5056133;28;20584;-84
2021/06/02 07:25:12;;;;;;;4.53;1.45;;;19.20;72.00;;;;;;5073903;28;20530;-84
2021/06/02 07:27:38;;;;;;;3.42;1.60;;;19.50;74.40;;;;;;5056222;28;20044;-82
2021/06/02 07:30:05;;;;;;;2.33;1.27;;;19.60;73.80;;;;;;5073993;28;20541;-82
2021/06/02 07:32:30;;;;;;;2.92;1.35;;;19.50;69.10;;;;;;5071832;28;20392;-82
2021/06/02 07:34:56;;;;;;;3.65;1.38;;;19.80;72.30;;;;;;5087616;28;20021;-82
2021/06/02 07:37:22;;;;;;;4.28;1.70;;;19.80;71.30;;;;;;5056115;28;20016;-82
2021/06/02 07:39:47;;;;;;;4.82;1.50;;;19.90;71.30;;;;;;5073941;28;20021;-82
2021/06/02 07:42:13;;;;;;;2.70;1.10;;;20.10;69.90;;;;;;5056002;28;20028;-82
2021/06/02 07:44:39;;;;;;;4.43;1.48;;;20.20;67.50;;;;;;5055776;28;20031;-83
2021/06/02 07:47:04;;;;;;;6.03;1.70;;;20.40;65.90;;;;;;5073905;28;20033;-83
2021/06/02 07:49:30;;;;;;;3.42;1.23;;;20.60;66.40;;;;;;5073548;28;20111;-82
2021/06/02 07:51:59;;;;;;;3.03;1.20;;;20.40;68.40;;;;;;5056923;28;20055;-82
2021/06/02 07:54:25;;;;;;;3.25;1.33;;;20.40;67.50;;;;;;5073644;28;20403;-83
2021/06/02 07:56:50;;;;;;;4.20;1.00;;;20.50;67.30;;;;;;5073991;28;20096;-82
2021/06/02 07:59:16;;;;;;;4.45;1.10;;;20.80;67.90;;;;;;5055675;28;20028;-83
2021/06/02 08:01:42;;;;;;;1.77;0.75;;;21.00;65.60;;;;;;5073258;28;20039;-83
2021/06/02 08:04:07;;;;;;;6.45;0.90;;;21.00;63.60;;;;;;5071609;28;20489;-83
2021/06/02 08:06:34;;;;;;;3.45;0.90;;;20.90;62.50;;;;;;5055501;28;20040;-83
2021/06/02 08:09:00;;;;;;;4.32;0.90;;;21.10;63.50;;;;;;5071006;28;20369;-84
2021/06/02 08:11:25;;;;;;;4.43;1.02;;;21.00;61.60;;;;;;5071901;28;20020;-84
2021/06/02 08:13:51;;;;;;;3.03;1.00;;;21.30;63.50;;;;;;5072894;28;20201;-86
2021/06/02 08:16:16;;;;;;;2.30;0.90;;;21.20;64.10;;;;;;5055256;28;20500;-84
2021/06/02 08:18:42;;;;;;;2.83;1.08;;;21.30;64.60;;;;;;5058422;28;20674;-84
2021/06/02 08:21:08;;;;;;;2.38;0.88;;;21.50;64.90;;;;;;5073216;28;20033;-85
2021/06/02 08:23:34;;;;;;;2.78;1.13;;;21.60;64.50;;;;;;5071386;28;20411;-85
2021/06/02 08:26:00;;;;;;;6.40;1.15;;;21.60;63.60;;;;;;5071704;28;20036;-84
2021/06/02 08:28:25;;;;;;;2.72;0.90;;;21.80;63.70;;;;;;5062693;28;20074;-85
2021/06/02 08:30:51;;;;;;;3.13;0.82;;;21.80;62.20;;;;;;5074698;28;20444;-85
2021/06/02 08:33:17;;;;;;;3.85;1.13;;;22.00;61.90;;;;;;5075009;28;20056;-84
2021/06/02 08:35:43;;;;;;;3.47;0.93;;;21.90;61.20;;;;;;5074223;28;20383;-84
2021/06/02 08:38:09;;;;;;;2.88;1.00;;;22.20;62.30;;;;;;5071528;28;20033;-85
2021/06/02 08:40:36;;;;;;;5.10;1.13;;;22.30;62.30;;;;;;5054866;28;20025;-85
2021/06/02 08:43:01;;;;;;;2.70;0.88;;;22.40;61.40;;;;;;5054837;28;20389;-85
2021/06/02 08:45:27;;;;;;;3.67;0.90;;;22.50;60.30;;;;;;5072546;28;20033;-85
2021/06/02 08:47:54;;;;;;;3.00;1.10;;;22.20;60.80;;;;;;5054821;28;20032;-85
2021/06/02 08:50:20;;;;;;;4.65;0.75;;;22.20;61.10;;;;;;5072547;28;20028;-84
2021/06/02 08:52:46;;;;;;;2.58;0.80;;;22.00;60.70;;;;;;5062857;28;20028;-85
2021/06/02 08:55:15;;;;;;;3.75;0.90;;;22.20;60.40;;;;;;5070409;28;20055;-84
2021/06/02 08:57:42;;;;;;;7.25;0.80;;;22.50;59.50;;;;;;5071212;28;20112;-85
2021/06/02 09:00:17;;;;;;;3.17;0.75;;;22.80;60.40;;;;;;5072496;28;20016;-85
2021/06/02 09:02:46;;;;;;;1.75;0.70;;;23.10;60.00;;;;;;5072288;28;20047;-85
2021/06/02 09:05:13;;;;;;;2.28;0.73;;;22.90;56.00;;;;;;5070751;28;20020;-85
2021/06/02 09:07:41;;;;;;;6.03;1.15;;;23.10;55.20;;;;;;5071107;28;20391;-86
2021/06/02 09:10:08;;;;;;;1.77;0.70;;;23.40;54.80;;;;;;5070826;28;20032;-84
2021/06/02 09:12:37;;;;;;;2.17;0.80;;;23.50;50.20;;;;;;5052968;28;20037;-85
2021/06/02 09:15:12;;;;;;;2.72;0.70;;;23.10;48.70;;;;;;5071851;28;20025;-85
2021/06/02 09:18:00;;;;;;;1.73;0.82;;;23.30;49.70;;;;;;5072173;28;20546;-86
2021/06/02 09:20:37;;;;;;;2.20;0.93;;;23.70;51.60;;;;;;5071805;28;20069;-84
2021/06/02 09:23:27;;;;;;;2.53;0.77;;;24.00;53.00;;;;;;5072306;28;20025;-85
2021/06/02 09:25:57;;;;;;;2.08;0.70;;;24.20;52.50;;;;;;5053914;28;20038;-85
2021/06/02 09:28:43;;;;;;;2.78;0.95;;;24.10;49.90;;;;;;5053636;28;20388;-85
2021/06/02 09:31:30;;;;;;;2.72;0.80;;;23.90;48.10;;;;;;5075956;28;20032;-85
2021/06/02 09:34:15;;;;;;;2.72;0.88;;;24.00;50.60;;;;;;5060806;28;20036;-85
2021/06/02 09:36:42;;;;;;;4.55;1.00;;;24.40;48.40;;;;;;5093039;28;20485;-85
2021/06/02 09:39:10;;;;;;;2.42;0.70;;;24.30;47.40;;;;;;5071901;28;20476;-85
2021/06/02 09:41:47;;;;;;;3.90;1.10;;;24.60;47.90;;;;;;5071222;28;20037;-85
2021/06/02 09:44:28;;;;;;;2.25;0.95;;;24.70;47.00;;;;;;5071264;28;20032;-85
2021/06/02 09:47:07;;;;;;;2.90;0.93;;;24.70;47.70;;;;;;5071550;28;20412;-86
2021/06/02 09:49:56;;;;;;;2.88;0.77;;;25.10;47.90;;;;;;5070484;28;20064;-85
2021/06/02 09:52:45;;;;;;;3.70;0.85;;;25.30;47.90;;;;;;5073293;28;20073;-85
2021/06/02 09:55:26;;;;;;;2.70;0.90;;;24.50;46.90;;;;;;5054073;28;20024;-86
2021/06/02 09:58:01;;;;;;;2.25;1.00;;;24.60;46.20;;;;;;5053608;28;20431;-86
2021/06/02 10:00:28;;;;;;;2.85;1.00;;;24.50;46.40;;;;;;5053368;28;20036;-85
2021/06/02 10:02:59;;;;;;;2.63;1.02;;;24.50;45.90;;;;;;5055713;28;20134;-85
2021/06/02 10:05:33;;;;;;;1.92;0.82;;;24.30;46.10;;;;;;5070981;28;20369;-85
2021/06/02 10:07:59;;;;;;;1.95;0.88;;;24.40;46.20;;;;;;5070210;28;20037;-85
2021/06/02 10:10:26;;;;;;;3.03;1.00;;;24.80;46.20;;;;;;5069407;28;20111;-85
2021/06/02 10:13:01;;;;;;;2.05;0.80;;;25.10;45.90;;;;;;5070253;28;20028;-87
2021/06/02 10:15:39;;;;;;;1.90;0.77;;;25.50;44.50;;;;;;5053362;28;20024;-85
2021/06/02 10:18:29;;;;;;;2.83;0.80;;;25.80;44.90;;;;;;5071592;28;20025;-86
2021/06/02 10:21:09;;;;;;;1.60;0.70;;;26.00;46.30;;;;;;5071159;28;20453;-86
2021/06/02 10:23:39;;;;;;;1.73;0.60;;;26.30;45.80;;;;;;5077787;28;20032;-86
2021/06/02 10:26:07;;;;;;;2.28;0.70;;;26.30;45.80;;;;;;5053161;28;20652;-86
2021/06/02 10:28:33;;;;;;;2.38;0.80;;;26.50;46.10;;;;;;5053504;28;20033;-86
2021/06/02 10:31:01;;;;;;;1.88;0.70;;;26.30;44.00;;;;;;5055699;28;20020;-85
2021/06/02 10:33:29;;;;;;;6.20;0.80;;;26.40;45.60;;;;;;5072911;28;20480;-85
2021/06/02 10:35:56;;;;;;;2.20;0.80;;;26.60;46.00;;;;;;5069054;28;20055;-85
2021/06/02 10:38:24;;;;;;;1.98;0.90;;;26.90;44.70;;;;;;5069035;28;20052;-85
2021/06/02 10:40:54;;;;;;;2.17;0.75;;;26.90;45.50;;;;;;5070759;28;20025;-86
2021/06/02 10:43:24;;;;;;;1.67;0.80;;;27.20;46.30;;;;;;5071919;28;20028;-85
2021/06/02 10:46:00;;;;;;;2.10;0.70;;;27.30;42.50;;;;;;5053260;28;20032;-86
2021/06/02 10:48:40;;;;;;;2.22;0.77;;;27.50;44.10;;;;;;5071333;28;20376;-86
2021/06/02 10:51:07;;;;;;;1.80;0.80;;;27.50;42.70;;;;;;5053010;28;20637;-85
2021/06/02 10:53:32;;;;;;;2.83;0.88;;;27.60;42.20;;;;;;5072841;28;20024;-86
2021/06/02 10:55:59;;;;;;;2.63;0.95;;;27.80;42.50;;;;;;5071055;28;20395;-86
2021/06/02 10:58:47;;;;;;;2.65;0.80;;;27.80;41.90;;;;;;5053073;28;20028;-86
2021/06/02 11:01:17;;;;;;;3.60;1.15;;;27.70;42.20;;;;;;5070327;28;20025;-86
2021/06/02 11:03:44;;;;;;;1.90;0.93;;;28.10;43.60;;;;;;5070124;28;20021;-86
2021/06/02 11:06:13;;;;;;;1.58;0.60;;;28.20;43.20;;;;;;5052698;28;20508;-86
2021/06/02 11:08:48;;;;;;;2.53;0.95;;;28.40;41.90;;;;;;5070534;28;20065;-86
2021/06/02 11:11:20;;;;;;;1.83;0.88;;;28.40;41.30;;;;;;5052820;28;20029;-86
2021/06/02 11:16:42;;;;;;;2.50;1.00;;;28.60;42.00;;;;;;5074354;28;20488;-85
2021/06/02 11:19:12;;;;;;;1.80;0.80;;;28.70;42.50;;;;;;5052766;28;20048;-86
2021/06/02 11:21:53;;;;;;;2.03;0.75;;;28.70;41.40;;;;;;5070334;28;20104;-86
2021/06/02 11:24:30;;;;;;;2.53;0.80;;;28.40;42.00;;;;;;5070012;28;20026;-86
2021/06/02 11:27:11;;;;;;;3.92;1.02;;;28.70;42.00;;;;;;5052297;28;20361;-86
2021/06/02 11:29:52;;;;;;;3.22;1.00;;;28.90;41.50;;;;;;5052178;28;20046;-86
2021/06/02 11:32:24;;;;;;;1.95;1.02;;;29.10;40.80;;;;;;5084449;28;20028;-86
2021/06/02 11:34:54;;;;;;;2.58;1.10;;;28.90;40.40;;;;;;5071878;28;20024;-86
2021/06/02 11:37:24;;;;;;;2.25;0.90;;;28.70;40.00;;;;;;5082502;28;20101;-86
2021/06/02 11:39:53;;;;;;;5.07;0.95;;;28.50;40.80;;;;;;5070246;28;20090;-86
2021/06/02 11:42:41;;;;;;;3.28;0.90;;;28.90;41.00;;;;;;5070182;28;20044;-86
2021/06/02 11:45:18;;;;;;;2.08;0.90;;;29.00;40.90;;;;;;5051370;28;20112;-86
2021/06/02 11:47:49;;;;;;;2.42;0.90;;;29.50;41.10;;;;;;5091638;22;20045;-83
2021/06/02 11:50:20;;;;;;;4.03;1.73;;;29.70;41.20;;;;;;5096033;28;20028;-83
2021/06/02 11:52:54;;;;;;;2.92;0.93;;;29.90;40.60;;;;;;5100310;28;20441;-83
2021/06/02 11:55:20;;;;;;;2.05;0.88;;;29.90;39.90;;;;;;5100532;28;20085;-81
2021/06/02 11:57:49;;;;;;;3.10;0.70;;;29.80;38.50;;;;;;5071359;28;20033;-83
2021/06/02 12:00:20;;;;;;;2.03;0.98;;;29.80;40.00;;;;;;5041317;28;20055;-83
2021/06/02 12:02:52;;;;;;;4.60;0.98;;;30.10;40.20;;;;;;5071569;28;20123;-83
2021/06/02 12:05:20;;;;;;;2.38;0.90;;;30.10;39.30;;;;;;5080904;28;20084;-83
2021/06/02 12:07:48;;;;;;;2.55;0.90;;;30.70;39.10;;;;;;5061292;28;20032;-83
2021/06/02 12:10:15;;;;;;;3.20;0.88;;;31.00;38.60;;;;;;5075911;28;20395;-83
2021/06/02 12:12:42;;;;;;;2.60;1.00;;;30.80;38.80;;;;;;5082974;28;20506;-81
2021/06/02 12:15:09;;;;;;;4.28;0.85;;;30.90;39.50;;;;;;5075167;28;20107;-83
2021/06/02 12:17:35;;;;;;;2.10;0.93;;;30.90;37.60;;;;;;5092897;28;20028;-82
2021/06/02 12:20:05;;;;;;;4.03;0.88;;;30.60;37.80;;;;;;5099542;28;20080;-82
2021/06/02 12:22:31;;;;;;;3.38;0.90;;;30.80;37.40;;;;;;5072197;28;20036;-83
2021/06/02 12:25:08;;;;;;;4.60;1.00;;;30.80;38.10;;;;;;5057251;28;20033;-85
2021/06/02 12:27:58;;;;;;;2.80;1.00;;;30.90;37.10;;;;;;5042060;28;20040;-83
2021/06/02 12:30:37;;;;;;;1.77;0.90;;;31.00;37.10;;;;;;5057047;28;20091;-85
2021/06/02 12:33:09;;;;;;;1.50;0.80;;;30.70;37.20;;;;;;5040760;28;20025;-83
2021/06/02 12:35:39;;;;;;;2.45;0.77;;;30.70;37.10;;;;;;5063754;28;20115;-85
2021/06/02 12:38:20;;;;;;;1.95;0.80;;;30.90;36.80;;;;;;5062546;28;20031;-85
2021/06/02 12:40:54;;;;;;;2.33;0.98;;;30.70;37.50;;;;;;5057961;28;20037;-85
2021/06/02 12:43:37;;;;;;;3.33;0.93;;;30.80;37.80;;;;;;5058128;28;20025;-83
2021/06/02 12:46:14;;;;;;;1.90;0.80;;;30.90;37.20;;;;;;5040537;28;20056;-86
2021/06/02 12:48:41;;;;;;;2.10;0.80;;;30.90;37.30;;;;;;5058381;28;20033;-85
2021/06/02 12:51:17;;;;;;;4.10;0.93;;;30.90;37.30;;;;;;5041018;28;20025;-85
2021/06/02 12:53:45;;;;;;;2.50;0.90;;;31.10;37.00;;;;;;5046285;28;20095;-84
2021/06/02 12:56:12;;;;;;;1.05;0.60;;;31.40;36.80;;;;;;5038234;28;20064;-85
2021/06/02 12:58:39;;;;;;;1.98;0.80;;;31.50;36.40;;;;;;5036296;28;20029;-83
2021/06/02 13:01:13;;;;;;;1.90;0.70;;;31.30;36.60;;;;;;5035640;28;20111;-84
2021/06/02 13:03:50;;;;;;;3.50;0.95;;;31.50;36.50;;;;;;5053342;28;20074;-85
2021/06/02 13:06:24;;;;;;;2.08;0.70;;;31.50;36.20;;;;;;5054995;28;20155;-83
2021/06/02 13:08:50;;;;;;;2.15;0.95;;;31.60;36.10;;;;;;5055950;28;20017;-85
2021/06/02 13:11:27;;;;;;;2.03;1.00;;;31.10;36.70;;;;;;5074810;28;20028;-85
2021/06/02 13:13:54;;;;;;;2.55;0.73;;;31.50;36.40;;;;;;5061242;28;20039;-84
2021/06/02 13:16:21;;;;;;;2.70;0.63;;;31.90;36.40;;;;;;5057055;28;20032;-86
2021/06/02 13:19:05;;;;;;;3.22;0.60;;;32.10;35.70;;;;;;5057484;28;20024;-85
2021/06/02 13:21:34;;;;;;;2.63;0.82;;;31.70;35.90;;;;;;5055607;28;20044;-85
2021/06/02 13:24:08;;;;;;;2.78;0.80;;;31.30;36.10;;;;;;5058108;28;20017;-86
2021/06/02 13:26:34;;;;;;;1.73;0.73;;;31.40;36.70;;;;;;5040498;28;20473;-85
2021/06/02 13:29:00;;;;;;;2.40;0.57;;;31.60;36.30;;;;;;5057990;28;20039;-86
2021/06/02 13:31:39;;;;;;;2.20;0.63;;;31.90;35.60;;;;;;5039813;28;20029;-85
2021/06/02 13:34:05;;;;;;;2.35;0.73;;;32.20;37.00;;;;;;5057332;28;20055;-83
2021/06/02 13:36:31;;;;;;;2.92;0.70;;;32.60;35.00;;;;;;5057078;28;20029;-83
2021/06/02 13:39:15;;;;;;;2.92;0.70;;;32.30;35.10;;;;;;5058394;28;20489;-80